Silver Orla — V7FI9 — position and weather

sailwx.info

Track history (hours):
 
Tides and Currents Weather Stations Pressure Air Temp Water Temp Dewpoint Dewpoint Depression Visibility Wind Speed Wind Dir Waves Ship Positions

Silver Orla

Last reported at 2018-May-18 20:07 UTC. Time now 2018-May-20 15:37 UTC.
Position N 39°32' E 025°49'.

Length 183 m; draft 8.2 m.

Type: Tanker. MMSI: 538005601.

Date/timePositionNaut miles runAvg speedWind from/ knotsBaromVisibWave heightAir tempDewpointWater temp
2018-May-18 20:07N 39°32' E 025°49'213.0
2018-May-18 20:00N 39°34' E 025°50'913.0
2018-May-18 19:20N 39°42' E 025°51'413.3
2018-May-18 19:00N 39°47' E 025°51'713.1
2018-May-18 18:30N 39°53' E 025°52'1112.9
2018-May-18 17:38N 40°01' E 026°03'  
2018-May-14 13:33N 39°60' E 026°06'2 9.0
2018-May-14 13:21N 39°60' E 026°04'3 8.9
2018-May-14 12:58N 39°58' E 026°00'4 8.5
2018-May-14 12:30N 39°56' E 025°56'4 8.5
2018-May-14 11:59N 39°53' E 025°52'  
Track history (hours):
 
Tides and Currents Weather Stations Pressure Air Temp Water Temp Dewpoint Dewpoint Depression Visibility Wind Speed Wind Dir Waves Ship Positions

Silver Orla

Last reported at 2018-May-18 20:07 UTC. Time now 2018-May-20 15:37 UTC.
Position N 39°32' E 025°49'.

Length 183 m; draft 8.2 m.

Type: Tanker. MMSI: 538005601.

Date/timePositionNaut miles runAvg speedWind from/ knotsBaromVisibWave heightAir tempDewpointWater temp
2018-May-18 20:07N 39°32' E 025°49'213.0
2018-May-18 20:00N 39°34' E 025°50'913.0
2018-May-18 19:20N 39°42' E 025°51'413.3
2018-May-18 19:00N 39°47' E 025°51'713.1
2018-May-18 18:30N 39°53' E 025°52'1112.9
2018-May-18 17:38N 40°01' E 026°03'  
2018-May-14 13:33N 39°60' E 026°06'2 9.0
2018-May-14 13:21N 39°60' E 026°04'3 8.9
2018-May-14 12:58N 39°58' E 026°00'4 8.5
2018-May-14 12:30N 39°56' E 025°56'4 8.5
2018-May-14 11:59N 39°53' E 025°52'  

Dump ship's entire track history